Time;durP1;ratioP1;P1;durP2;ratioP2;P2;SDS_P1;SDS_P2;PMS_P1;PMS_P2;Temp;Humidity;BMP_temperature;BMP_pressure;BME280_temperature;BME280_humidity;BME280_pressure;Samples;Min_cycle;Max_cycle;Signal;HPM_P1;HPM_P2
2023/02/04 00:01:37;;;;;;;;;;;;;;;26.01;37.05;95627.84;5003467;28;8727;-62
2023/02/04 00:04:12;;;;;;;;;;;;;;;26.00;36.72;95629.13;4930283;29;7255;-61
2023/02/04 00:06:51;;;;;;;;;;;;;;;26.00;37.60;95622.84;4934620;29;7027;-61
2023/02/04 00:09:18;;;;;;;;;;;;;;;25.98;37.62;95626.09;4941885;28;7094;-66
2023/02/04 00:11:46;;;;;;;;;;;;;;;26.03;36.78;95622.63;4942645;28;9048;-66
2023/02/04 00:14:24;;;;;;;;;;;;;;;25.99;37.24;95622.06;4944412;29;7084;-66
2023/02/04 00:17:00;;;;;;;;;;;;;;;26.02;37.13;95629.38;4947587;29;7264;-67
2023/02/04 00:19:27;;;;;;;;;;;;;;;26.01;36.76;95625.09;4946208;28;9207;-66
2023/02/04 00:22:05;;;;;;;;;;;;;;;26.02;37.24;95618.34;4930330;28;8892;-67
2023/02/04 00:24:32;;;;;;;;;;;;;;;26.03;37.05;95619.84;4938254;28;8197;-66
2023/02/04 00:26:58;;;;;;;;;;;;;;;26.05;37.20;95624.91;4917682;28;9141;-66
2023/02/04 00:29:26;;;;;;;;;;;;;;;26.06;36.61;95632.69;4940728;28;8693;-66
2023/02/04 00:31:52;;;;;;;;;;;;;;;26.04;37.22;95629.66;4944165;28;9081;-66
2023/02/04 00:34:33;;;;;;;;;;;;;;;26.02;36.86;95626.63;4934087;28;7354;-66
2023/02/04 00:37:06;;;;;;;;;;;;;;;26.02;37.46;95632.13;4950256;28;8964;-66
2023/02/04 00:39:33;;;;;;;;;;;;;;;26.04;37.71;95643.44;5003202;28;9201;-66
2023/02/04 00:41:59;;;;;;;;;;;;;;;26.03;36.71;95644.66;4998723;28;7035;-66
2023/02/04 00:44:30;;;;;;;;;;;;;;;26.04;37.42;95645.44;4999043;28;8220;-66
2023/02/04 00:46:58;;;;;;;;;;;;;;;26.03;37.15;95649.44;4994843;28;8914;-66
2023/02/04 00:49:29;;;;;;;;;;;;;;;26.03;36.96;95641.19;5009222;28;7347;-66
2023/02/04 00:51:55;;;;;;;;;;;;;;;26.02;36.88;95643.16;5009456;28;7198;-66
2023/02/04 00:54:23;;;;;;;;;;;;;;;26.01;37.50;95646.41;4997334;28;9291;-66
2023/02/04 00:57:07;;;;;;;;;;;;;;;26.02;37.68;95637.66;4999576;28;7913;-66
2023/02/04 00:59:33;;;;;;;;;;;;;;;25.97;36.98;95632.06;5002201;28;7042;-66
2023/02/04 01:02:16;;;;;;;;;;;;;;;26.03;37.07;95625.38;4997972;28;8641;-66
2023/02/04 01:05:00;;;;;;;;;;;;;;;26.02;37.05;95626.63;5001312;28;7223;-66
2023/02/04 01:07:37;;;;;;;;;;;;;;;26.04;37.02;95626.13;4999970;28;8638;-66
2023/02/04 01:10:04;;;;;;;;;;;;;;;26.02;37.31;95623.88;5000028;28;7046;-66
2023/02/04 01:12:34;;;;;;;;;;;;;;;26.05;37.55;95622.16;4997478;28;7285;-67
2023/02/04 01:15:27;;;;;;;;;;;;;;;26.06;37.09;95629.16;5001975;28;8824;-66
2023/02/04 01:17:54;;;;;;;;;;;;;;;26.05;37.46;95631.19;4932961;28;8069;-66
2023/02/04 01:20:27;;;;;;;;;;;;;;;26.05;36.78;95635.94;4945773;28;9150;-66
2023/02/04 01:22:54;;;;;;;;;;;;;;;26.04;36.83;95632.41;4942767;28;7275;-66
2023/02/04 01:25:31;;;;;;;;;;;;;;;26.02;37.49;95623.88;4942238;28;9401;-66
2023/02/04 01:27:56;;;;;;;;;;;;;;;26.05;37.58;95633.19;4939975;28;9038;-66
2023/02/04 01:30:22;;;;;;;;;;;;;;;26.04;36.77;95629.66;4929386;28;8194;-66
2023/02/04 01:32:51;;;;;;;;;;;;;;;25.99;36.97;95633.09;4927931;28;9058;-62
2023/02/04 01:35:17;;;;;;;;;;;;;;;26.01;37.50;95636.13;4944653;28;8736;-62
2023/02/04 01:37:43;;;;;;;;;;;;;;;26.01;37.37;95636.13;4928129;28;7536;-57
2023/02/04 01:40:12;;;;;;;;;;;;;;;26.01;37.80;95635.38;4929613;28;7261;-57
2023/02/04 01:42:39;;;;;;;;;;;;;;;25.98;37.56;95633.59;4942403;28;6983;-57
2023/02/04 01:45:06;;;;;;;;;;;;;;;25.97;36.92;95624.56;4930441;28;9171;-57
2023/02/04 01:47:36;;;;;;;;;;;;;;;25.97;37.97;95626.53;4943171;28;9094;-57
2023/02/04 01:50:04;;;;;;;;;;;;;;;26.01;37.68;95625.09;4945748;28;9209;-57
2023/02/04 01:52:35;;;;;;;;;;;;;;;25.99;36.73;95627.59;4926340;28;8496;-57
2023/02/04 01:55:50;;;;;;;;;;;;;;;25.98;37.48;95636.34;4970959;28;7068;-57
2023/02/04 01:58:30;;;;;;;;;;;;;;;25.98;37.34;95633.59;4942147;28;8309;-67
2023/02/04 02:00:57;;;;;;;;;;;;;;;25.97;37.19;95630.06;4946073;28;7116;-67
2023/02/04 02:03:28;;;;;;;;;;;;;;;25.99;37.84;95624.09;4922152;28;9133;-65
2023/02/04 02:06:06;;;;;;;;;;;;;;;25.99;37.25;95624.81;4930112;28;9477;-65
2023/02/04 02:08:33;;;;;;;;;;;;;;;25.98;37.07;95615.06;4946135;28;9083;-65
2023/02/04 02:11:00;;;;;;;;;;;;;;;25.98;36.75;95609.53;4932647;28;7404;-65
2023/02/04 02:13:26;;;;;;;;;;;;;;;26.02;37.51;95603.81;4939203;28;7325;-65
2023/02/04 02:15:56;;;;;;;;;;;;;;;26.04;36.80;95606.84;4930713;28;7113;-65
2023/02/04 02:18:34;;;;;;;;;;;;;;;26.04;37.13;95617.88;4947525;28;7299;-65
2023/02/04 02:21:20;;;;;;;;;;;;;;;26.04;37.03;95606.84;4928479;28;7042;-65
2023/02/04 02:23:56;;;;;;;;;;;;;;;26.03;37.17;95610.84;4942014;28;7243;-65
2023/02/04 02:26:55;;;;;;;;;;;;;;;26.03;37.65;95608.09;4944984;28;7109;-65
2023/02/04 02:29:22;;;;;;;;;;;;;;;26.03;37.26;95594.31;4931262;28;7256;-65
2023/02/04 02:31:51;;;;;;;;;;;;;;;26.02;36.91;95604.56;4944936;28;8939;-65
2023/02/04 02:34:17;;;;;;;;;;;;;;;25.99;36.82;95605.53;4962468;28;6966;-65
2023/02/04 02:37:18;;;;;;;;;;;;;;;26.01;37.09;95603.03;5000401;28;8965;-65
2023/02/04 02:39:50;;;;;;;;;;;;;;;26.00;36.87;95596.03;4957017;28;7277;-65
2023/02/04 02:42:18;;;;;;;;;;;;;;;26.01;37.99;95602.31;4967050;28;9382;-65
2023/02/04 02:44:53;;;;;;;;;;;;;;;26.01;37.67;95586.50;4953602;28;7224;-65
2023/02/04 02:47:30;;;;;;;;;;;;;;;26.02;37.67;95588.03;4948471;28;9496;-65
2023/02/04 02:50:04;;;;;;;;;;;;;;;26.03;36.93;95589.53;4950796;28;7314;-65
2023/02/04 02:52:30;;;;;;;;;;;;;;;26.03;37.54;95588.78;4962389;28;9808;-65
2023/02/04 02:55:30;;;;;;;;;;;;;;;26.04;37.87;95580.03;4948155;28;9062;-65
2023/02/04 02:57:56;;;;;;;;;;;;;;;26.04;37.41;95593.03;4882437;29;7067;-65
2023/02/04 03:00:27;;;;;;;;;;;;;;;25.99;37.97;95588.97;4884374;29;7070;-65
2023/02/04 03:03:08;;;;;;;;;;;;;;;26.00;37.73;95585.00;4885947;29;9056;-65
2023/02/04 03:05:42;;;;;;;;;;;;;;;25.98;37.82;95581.97;4870442;29;8843;-65
2023/02/04 03:08:11;;;;;;;;;;;;;;;25.97;37.40;95583.19;4882341;29;7088;-64
2023/02/04 03:10:38;;;;;;;;;;;;;;;25.96;37.43;95573.44;4885167;29;7237;-65
2023/02/04 03:13:19;;;;;;;;;;;;;;;25.96;37.64;95565.16;4888608;29;9086;-65
2023/02/04 03:15:55;;;;;;;;;;;;;;;25.96;37.22;95575.44;4900900;29;7019;-65
2023/02/04 03:18:28;;;;;;;;;;;;;;;25.97;37.80;95574.16;4908468;29;7085;-65
2023/02/04 03:21:05;;;;;;;;;;;;;;;25.96;37.72;95578.94;4907658;29;9308;-65
2023/02/04 03:23:44;;;;;;;;;;;;;;;25.92;37.80;95578.41;4908632;29;8992;-62
2023/02/04 03:26:12;;;;;;;;;;;;;;;25.93;37.58;95590.94;4910322;29;9060;-62
2023/02/04 03:28:39;;;;;;;;;;;;;;;25.94;37.65;95592.47;4911886;29;8696;-62
2023/02/04 03:31:05;;;;;;;;;;;;;;;25.93;37.10;95592.91;4907927;29;7057;-62
2023/02/04 03:33:31;;;;;;;;;;;;;;;25.94;37.24;95600.72;4950914;28;7394;-62
2023/02/04 03:36:03;;;;;;;;;;;;;;;25.94;37.15;95602.72;5003991;28;7020;-62
2023/02/04 03:38:29;;;;;;;;;;;;;;;25.93;37.58;95607.47;4998596;28;9117;-62
2023/02/04 03:40:57;;;;;;;;;;;;;;;25.93;37.15;95606.69;4993915;28;7125;-62
2023/02/04 03:43:23;;;;;;;;;;;;;;;25.92;37.47;95617.00;4998018;28;8266;-57
2023/02/04 03:46:19;;;;;;;;;;;;;;;25.93;37.16;95612.22;5004525;28;7128;-57
2023/02/04 03:48:46;;;;;;;;;;;;;;;25.93;37.71;95610.22;4984501;28;7270;-57
2023/02/04 03:51:15;;;;;;;;;;;;;;;25.93;38.12;95601.19;4984883;28;9209;-57
2023/02/04 03:53:56;;;;;;;;;;;;;;;25.95;37.61;95590.44;4969722;28;7369;-57
2023/02/04 03:56:28;;;;;;;;;;;;;;;25.96;37.17;95592.72;4989180;28;10012;-57
2023/02/04 03:58:56;;;;;;;;;;;;;;;25.97;37.32;95596.22;4970057;28;7582;-57
2023/02/04 04:01:23;;;;;;;;;;;;;;;25.97;38.05;95597.00;4972189;28;7254;-57
2023/02/04 04:03:58;;;;;;;;;;;;;;;25.97;38.03;95590.72;4965634;28;7974;-65
2023/02/04 04:06:34;;;;;;;;;;;;;;;25.97;37.18;95601.72;4972714;28;6971;-65
2023/02/04 04:09:03;;;;;;;;;;;;;;;25.95;37.47;95599.47;4987189;28;7149;-65
2023/02/04 04:11:30;;;;;;;;;;;;;;;25.95;37.48;95601.47;4983314;28;9154;-65
2023/02/04 04:14:17;;;;;;;;;;;;;;;25.96;37.16;95605.75;4990132;28;9097;-65
2023/02/04 04:16:43;;;;;;;;;;;;;;;25.94;37.76;95600.72;4988597;28;7126;-65
2023/02/04 04:19:09;;;;;;;;;;;;;;;25.95;37.93;95599.47;4971571;28;8299;-65
2023/02/04 04:22:12;;;;;;;;;;;;;;;25.96;37.72;95595.50;4971583;28;7332;-65
2023/02/04 04:24:45;;;;;;;;;;;;;;;25.93;37.78;95599.19;4976470;28;8766;-65
2023/02/04 04:27:21;;;;;;;;;;;;;;;25.95;37.63;95609.72;4999115;28;8702;-61
2023/02/04 04:29:47;;;;;;;;;;;;;;;25.94;37.13;95609.00;4994088;28;7120;-61
2023/02/04 04:32:15;;;;;;;;;;;;;;;25.94;37.73;95613.75;5003724;28;7891;-57
2023/02/04 04:34:41;;;;;;;;;;;;;;;25.95;37.85;95610.50;4990463;28;7506;-57
2023/02/04 04:37:09;;;;;;;;;;;;;;;25.95;37.20;95616.00;4996658;28;8854;-57
2023/02/04 04:39:36;;;;;;;;;;;;;;;25.95;37.68;95609.72;4997750;28;9257;-57
2023/02/04 04:42:02;;;;;;;;;;;;;;;25.96;37.88;95605.75;4992294;28;7121;-57
2023/02/04 04:44:28;;;;;;;;;;;;;;;25.92;37.73;95607.97;5013323;28;7267;-57
2023/02/04 04:46:56;;;;;;;;;;;;;;;25.95;37.21;95604.97;4998415;28;9070;-58
2023/02/04 04:49:26;;;;;;;;;;;;;;;25.95;37.35;95601.47;5007491;28;7202;-58
2023/02/04 04:52:01;;;;;;;;;;;;;;;25.94;37.41;95600.72;5007639;28;9082;-57
2023/02/04 04:54:36;;;;;;;;;;;;;;;25.94;38.03;95597.97;5006679;28;7443;-57
2023/02/04 04:57:07;;;;;;;;;;;;;;;25.94;37.49;95602.72;4999982;28;8948;-66
2023/02/04 04:59:35;;;;;;;;;;;;;;;25.94;37.85;95597.22;5002279;28;7048;-65
2023/02/04 05:02:08;;;;;;;;;;;;;;;25.95;37.41;95588.44;5003434;28;9583;-65
2023/02/04 05:04:40;;;;;;;;;;;;;;;25.95;37.95;95593.19;4999884;28;7022;-65
2023/02/04 05:07:08;;;;;;;;;;;;;;;25.95;37.27;95587.69;4999532;28;9017;-65
2023/02/04 05:09:36;;;;;;;;;;;;;;;25.94;38.16;95581.44;5009823;28;9219;-65
2023/02/04 05:12:09;;;;;;;;;;;;;;;25.94;37.41;95589.69;5006555;28;9060;-65
2023/02/04 05:14:34;;;;;;;;;;;;;;;25.95;37.57;95590.44;4996051;28;8699;-65
2023/02/04 05:17:00;;;;;;;;;;;;;;;25.94;38.05;95575.91;4998106;28;7563;-65
2023/02/04 05:19:26;;;;;;;;;;;;;;;25.95;37.98;95580.19;4994359;28;7447;-65
2023/02/04 05:21:56;;;;;;;;;;;;;;;25.94;37.65;95586.94;5001899;28;9307;-63
2023/02/04 05:24:24;;;;;;;;;;;;;;;25.95;37.92;95582.16;4999724;28;7291;-63
2023/02/04 05:26:50;;;;;;;;;;;;;;;25.97;38.17;95580.44;5006717;28;9470;-63
2023/02/04 05:29:20;;;;;;;;;;;;;;;25.98;38.01;95579.22;4997239;28;8860;-65
2023/02/04 05:31:46;;;;;;;;;;;;;;;25.93;38.13;95587.41;5000073;28;7460;-64
2023/02/04 05:34:19;;;;;;;;;;;;;;;25.95;37.65;95588.44;4998020;28;7239;-64
2023/02/04 05:36:45;;;;;;;;;;;;;;;25.95;38.88;95593.97;4998076;28;9688;-64
2023/02/04 05:39:14;;;;;;;;;;;;;;;25.93;38.67;95593.69;4994421;28;9059;-65
2023/02/04 05:41:41;;;;;;;;;;;;;;;25.95;38.30;95595.94;4996997;28;8973;-64
2023/02/04 05:44:12;;;;;;;;;;;;;;;25.95;38.14;95593.19;5011414;28;7227;-64
2023/02/04 05:46:45;;;;;;;;;;;;;;;25.93;38.37;95593.69;5001075;28;8713;-64
2023/02/04 05:49:31;;;;;;;;;;;;;;;25.92;38.41;95592.19;5004814;28;7212;-64
2023/02/04 05:51:57;;;;;;;;;;;;;;;25.91;38.39;95582.38;5005058;28;8258;-64
2023/02/04 05:54:36;;;;;;;;;;;;;;;25.93;38.95;95596.44;5014845;28;7290;-64
2023/02/04 05:57:06;;;;;;;;;;;;;;;25.95;38.23;95593.19;5000353;28;9150;-64
2023/02/04 05:59:53;;;;;;;;;;;;;;;25.94;38.27;95595.22;4996017;28;8965;-64
2023/02/04 06:02:22;;;;;;;;;;;;;;;25.97;37.95;95607.25;5003792;28;8804;-64
2023/02/04 06:04:50;;;;;;;;;;;;;;;25.97;38.45;95596.22;5000794;28;7319;-64
2023/02/04 06:07:20;;;;;;;;;;;;;;;25.96;38.15;95601.00;5002847;28;7013;-64
2023/02/04 06:09:55;;;;;;;;;;;;;;;25.97;38.13;95616.28;5003701;28;8610;-64
2023/02/04 06:12:29;;;;;;;;;;;;;;;25.97;39.02;95610.78;5006976;28;9393;-64
2023/02/04 06:15:06;;;;;;;;;;;;;;;25.96;38.75;95606.50;4997064;28;7342;-64
2023/02/04 06:17:34;;;;;;;;;;;;;;;25.93;38.82;95601.97;5001535;28;8746;-64
2023/02/04 06:20:00;;;;;;;;;;;;;;;25.97;38.73;95612.75;5014336;28;8109;-64
2023/02/04 06:22:35;;;;;;;;;;;;;;;25.96;38.78;95606.50;4999782;28;9548;-65
2023/02/04 06:25:04;;;;;;;;;;;;;;;25.95;38.57;95604.22;5012922;28;7043;-66
2023/02/04 06:27:46;;;;;;;;;;;;;;;25.97;38.32;95601.72;5000860;28;8950;-66
2023/02/04 06:30:13;;;;;;;;;;;;;;;25.97;38.62;95597.00;5013112;28;7279;-66
2023/02/04 06:32:39;;;;;;;;;;;;;;;25.94;39.18;95600.72;4995327;28;7217;-65
2023/02/04 06:35:24;;;;;;;;;;;;;;;25.99;38.92;95604.78;5001241;28;7112;-65
2023/02/04 06:38:03;;;;;;;;;;;;;;;25.97;38.80;95597.00;4995662;28;7337;-65
2023/02/04 06:40:30;;;;;;;;;;;;;;;26.00;38.25;95609.81;5010064;28;7135;-65
2023/02/04 06:43:10;;;;;;;;;;;;;;;26.00;38.20;95607.06;5007471;28;7217;-65
2023/02/04 06:46:00;;;;;;;;;;;;;;;26.00;38.95;95607.06;4998083;28;9103;-65
2023/02/04 06:48:27;;;;;;;;;;;;;;;25.99;37.94;95604.78;5003121;28;7065;-62
2023/02/04 06:50:56;;;;;;;;;;;;;;;25.98;38.49;95606.03;4995150;28;8733;-62
2023/02/04 06:53:26;;;;;;;;;;;;;;;26.00;38.36;95615.31;5005321;28;9158;-61
2023/02/04 06:55:52;;;;;;;;;;;;;;;26.00;38.57;95611.81;4999090;28;8803;-61
2023/02/04 06:58:23;;;;;;;;;;;;;;;26.01;38.45;95614.06;4995090;28;7044;-60
2023/02/04 07:00:51;;;;;;;;;;;;;;;26.01;38.35;95619.59;4991259;28;9086;-60
2023/02/04 07:03:19;;;;;;;;;;;;;;;26.02;39.06;95612.84;5004484;28;7675;-61
2023/02/04 07:05:48;;;;;;;;;;;;;;;26.09;38.24;95617.97;5000075;28;7200;-61
2023/02/04 07:08:16;;;;;;;;;;;;;;;26.04;37.79;95612.34;4990581;28;7052;-62
2023/02/04 07:10:45;;;;;;;;;;;;;;;26.05;38.37;95611.13;5005136;28;9290;-62
2023/02/04 07:13:15;;;;;;;;;;;;;;;26.01;37.84;95613.34;5004541;28;7288;-62
2023/02/04 07:16:11;;;;;;;;;;;;;;;26.00;38.32;95620.84;5002718;28;7203;-62
2023/02/04 07:18:47;;;;;;;;;;;;;;;25.99;37.95;95616.56;4990619;28;7441;-62
2023/02/04 07:21:18;;;;;;;;;;;;;;;25.96;38.29;95606.50;4957868;28;7101;-62
2023/02/04 07:24:21;;;;;;;;;;;;;;;25.98;38.52;95617.81;4988578;28;7295;-62
2023/02/04 07:26:58;;;;;;;;;;;;;;;25.98;38.55;95622.56;4986522;28;8754;-63
2023/02/04 07:29:24;;;;;;;;;;;;;;;25.97;37.99;95630.06;4973560;28;8310;-67
2023/02/04 07:31:53;;;;;;;;;;;;;;;25.97;38.19;95623.78;4971325;28;7062;-66
2023/02/04 07:34:36;;;;;;;;;;;;;;;25.97;38.06;95632.81;4981668;28;7237;-68
2023/02/04 07:37:31;;;;;;;;;;;;;;;26.02;38.42;95634.91;4988607;28;7207;-67
2023/02/04 07:39:57;;;;;;;;;;;;;;;25.99;38.21;95637.88;4910606;29;7000;-68
2023/02/04 07:42:23;;;;;;;;;;;;;;;25.96;38.73;95636.84;4924289;29;8683;-68
2023/02/04 07:45:18;;;;;;;;;;;;;;;25.96;39.37;95645.09;4912143;29;8523;-68
2023/02/04 07:47:58;;;;;;;;;;;;;;;25.92;39.37;95650.06;4902695;29;7080;-66
2023/02/04 07:50:38;;;;;;;;;;;;;;;25.94;39.35;95650.34;4904956;29;7251;-68
2023/02/04 07:53:19;;;;;;;;;;;;;;;25.95;39.37;95648.31;4897907;29;9083;-68
2023/02/04 07:56:02;;;;;;;;;;;;;;;25.95;39.57;95646.34;4897123;29;7040;-68
2023/02/04 07:58:36;;;;;;;;;;;;;;;25.93;39.83;95635.03;4879122;29;9047;-68
2023/02/04 08:01:11;;;;;;;;;;;;;;;25.91;39.23;95643.03;4877753;29;8205;-68
2023/02/04 08:03:38;;;;;;;;;;;;;;;25.93;38.96;95648.81;4874623;29;9621;-68
2023/02/04 08:06:05;;;;;;;;;;;;;;;25.93;39.12;95634.28;4877065;29;7090;-67
2023/02/04 08:08:47;;;;;;;;;;;;;;;25.93;39.88;95635.03;4877892;29;7154;-67
2023/02/04 08:11:15;;;;;;;;;;;;;;;25.94;39.85;95650.34;4879223;29;7018;-67
2023/02/04 08:13:41;;;;;;;;;;;;;;;25.94;39.54;95636.56;4877729;29;8909;-68
2023/02/04 08:16:12;;;;;;;;;;;;;;;25.94;39.69;95642.06;4916763;28;9337;-68
2023/02/04 08:19:11;;;;;;;;;;;;;;;25.95;39.34;95643.56;4968095;28;7579;-68
2023/02/04 08:21:53;;;;;;;;;;;;;;;25.95;40.17;95654.59;4875065;29;7038;-68
2023/02/04 08:24:30;;;;;;;;;;;;;;;25.93;40.01;95637.03;4886429;29;7284;-68
2023/02/04 08:27:07;;;;;;;;;;;;;;;25.94;39.51;95641.31;4912575;29;7039;-68
2023/02/04 08:29:32;;;;;;;;;;;;;;;25.94;40.09;95641.31;4888871;29;7361;-68
2023/02/04 08:31:58;;;;;;;;;;;;;;;25.94;40.33;95647.59;4912566;29;9117;-67
2023/02/04 08:34:27;;;;;;;;;;;;;;;25.93;40.04;95645.28;4907549;29;8230;-67
2023/02/04 08:37:23;;;;;;;;;;;;;;;25.94;40.64;95657.84;4907857;29;9445;-68
2023/02/04 08:39:55;;;;;;;;;;;;;;;25.96;39.89;95664.41;4915865;29;7216;-67
2023/02/04 08:42:21;;;;;;;;;;;;;;;25.95;39.43;95665.63;4911322;29;8276;-67
2023/02/04 08:44:49;;;;;;;;;;;;;;;25.96;40.08;95669.16;4917382;29;9217;-66
2023/02/04 08:47:16;;;;;;;;;;;;;;;25.97;39.79;95673.41;4914271;29;8226;-67
2023/02/04 08:49:44;;;;;;;;;;;;;;;25.98;39.75;95674.94;4899665;29;8650;-66
2023/02/04 08:52:10;;;;;;;;;;;;;;;25.99;39.79;95668.19;4912992;29;7545;-66
2023/02/04 08:54:37;;;;;;;;;;;;;;;25.97;40.12;95665.13;4906845;29;7162;-66
2023/02/04 08:57:04;;;;;;;;;;;;;;;25.98;39.21;95669.44;4950210;28;7030;-66
2023/02/04 08:59:32;;;;;;;;;;;;;;;25.97;39.46;95668.66;5003177;28;9051;-67
2023/02/04 09:02:01;;;;;;;;;;;;;;;25.97;40.20;95665.13;5002492;28;7452;-66
2023/02/04 09:04:29;;;;;;;;;;;;;;;25.97;39.60;95662.38;5005067;28;9144;-66
2023/02/04 09:07:04;;;;;;;;;;;;;;;25.98;39.50;95661.91;5002523;28;8982;-66
2023/02/04 09:09:31;;;;;;;;;;;;;;;25.99;39.48;95660.66;5001471;28;7426;-66
2023/02/04 09:12:02;;;;;;;;;;;;;;;25.99;39.47;95677.22;5005779;28;9170;-67
2023/02/04 09:14:28;;;;;;;;;;;;;;;26.00;39.67;95664.94;4994845;28;7977;-67
2023/02/04 09:17:06;;;;;;;;;;;;;;;26.00;40.17;95667.72;5004548;28;9229;-67
2023/02/04 09:19:39;;;;;;;;;;;;;;;26.01;39.77;95669.22;5003576;28;7590;-67
2023/02/04 09:22:16;;;;;;;;;;;;;;;26.00;39.73;95662.19;5002473;28;9064;-67
2023/02/04 09:24:58;;;;;;;;;;;;;;;26.01;40.34;95680.25;5002097;28;9500;-67
2023/02/04 09:27:26;;;;;;;;;;;;;;;26.00;40.36;95677.97;5018883;28;7483;-67
2023/02/04 09:29:52;;;;;;;;;;;;;;;26.02;39.55;95686.50;5005044;28;7157;-66
2023/02/04 09:32:20;;;;;;;;;;;;;;;26.02;40.04;95679.00;5002081;28;8740;-65
2023/02/04 09:34:47;;;;;;;;;;;;;;;26.00;39.74;95678.72;4996186;28;7519;-66
2023/02/04 09:37:13;;;;;;;;;;;;;;;26.03;39.77;95691.53;5011615;28;8784;-66
2023/02/04 09:39:45;;;;;;;;;;;;;;;26.00;40.03;95678.72;5013195;28;8581;-66
2023/02/04 09:42:14;;;;;;;;;;;;;;;26.01;39.56;95683.00;5020484;28;7498;-66
2023/02/04 09:44:44;;;;;;;;;;;;;;;26.01;39.18;95694.03;5015028;28;9114;-65
2023/02/04 09:47:22;;;;;;;;;;;;;;;26.02;39.24;95687.28;5004882;28;7259;-66
2023/02/04 09:49:59;;;;;;;;;;;;;;;26.03;39.84;95690.81;5012894;28;6933;-65
2023/02/04 09:52:27;;;;;;;;;;;;;;;26.03;39.91;95699.81;5008150;28;7582;-65
2023/02/04 09:54:56;;;;;;;;;;;;;;;26.03;39.76;95691.53;4996434;28;9192;-65
2023/02/04 09:57:23;;;;;;;;;;;;;;;26.01;39.03;95696.03;5005089;28;7735;-65
2023/02/04 09:59:54;;;;;;;;;;;;;;;26.05;39.56;95693.84;5004070;28;7041;-65
2023/02/04 10:02:25;;;;;;;;;;;;;;;26.03;38.93;95699.81;5001105;28;7019;-65
2023/02/04 10:04:56;;;;;;;;;;;;;;;26.04;38.75;95706.09;4987501;28;6861;-66
2023/02/04 10:07:28;;;;;;;;;;;;;;;26.03;39.02;95710.84;4992649;28;8479;-66
2023/02/04 10:09:57;;;;;;;;;;;;;;;26.02;39.08;95711.31;5005468;28;9199;-68
2023/02/04 10:12:24;;;;;;;;;;;;;;;26.03;39.05;95710.84;5000386;28;9426;-67
2023/02/04 10:15:21;;;;;;;;;;;;;;;26.03;38.52;95708.09;4996943;28;7837;-67
2023/02/04 10:18:00;;;;;;;;;;;;;;;26.01;38.47;95707.81;4972682;28;7041;-68
2023/02/04 10:20:27;;;;;;;;;;;;;;;26.02;38.58;95708.56;4987853;28;8711;-67
2023/02/04 10:23:10;;;;;;;;;;;;;;;26.02;38.98;95705.81;4986700;28;8985;-68
2023/02/04 10:25:36;;;;;;;;;;;;;;;26.02;38.78;95709.34;4984199;28;7126;-68
2023/02/04 10:28:02;;;;;;;;;;;;;;;26.04;38.57;95712.38;4969461;28;7143;-68
2023/02/04 10:30:40;;;;;;;;;;;;;;;26.01;39.18;95710.56;4964549;28;7494;-68
2023/02/04 10:33:34;;;;;;;;;;;;;;;26.03;38.66;95708.09;4981768;28;8838;-68
2023/02/04 10:36:02;;;;;;;;;;;;;;;26.03;38.77;95715.63;4970899;28;7256;-68
2023/02/04 10:38:57;;;;;;;;;;;;;;;26.01;38.22;95718.84;4972570;28;7040;-68
2023/02/04 10:41:26;;;;;;;;;;;;;;;25.98;39.23;95708.78;4987810;28;7039;-67
2023/02/04 10:44:11;;;;;;;;;;;;;;;25.98;39.10;95703.28;4984689;28;7195;-67
2023/02/04 10:46:47;;;;;;;;;;;;;;;25.95;39.07;95703.47;4988657;28;9339;-67
2023/02/04 10:49:24;;;;;;;;;;;;;;;25.96;39.66;95700.25;4984531;28;7304;-67
2023/02/04 10:51:52;;;;;;;;;;;;;;;25.95;39.61;95698.72;4988939;28;9390;-67
2023/02/04 10:54:31;;;;;;;;;;;;;;;25.99;38.87;95704.03;4990991;28;7283;-68
2023/02/04 10:57:22;;;;;;;;;;;;;;;25.99;39.87;95699.25;5004620;28;7281;-68
2023/02/04 10:59:55;;;;;;;;;;;;;;;26.00;39.25;95703.53;4995993;28;9427;-68
2023/02/04 11:02:42;;;;;;;;;;;;;;;25.99;39.11;95704.78;5004614;28;9067;-67
2023/02/04 11:05:16;;;;;;;;;;;;;;;25.97;39.05;95696.22;4996725;28;9439;-67
2023/02/04 11:07:46;;;;;;;;;;;;;;;25.99;39.66;95704.03;4996987;28;7029;-67
2023/02/04 11:10:19;;;;;;;;;;;;;;;25.97;39.34;95696.22;5001978;28;8005;-66
2023/02/04 11:12:53;;;;;;;;;;;;;;;25.97;39.72;95699.00;4993491;28;7300;-67
2023/02/04 11:16:07;;;;;;;;;;;;;;;25.99;39.83;95690.25;4998080;28;8957;-66
2023/02/04 11:18:56;;;;;;;;;;;;;;;26.00;39.12;95687.00;4998649;28;7462;-67
2023/02/04 11:21:35;;;;;;;;;;;;;;;26.01;38.92;95693.28;5004151;28;7205;-66
2023/02/04 11:24:12;;;;;;;;;;;;;;;26.01;39.80;95688.50;4996230;28;7243;-67
2023/02/04 11:26:42;;;;;;;;;;;;;;;26.01;39.35;95696.03;5001789;28;8998;-67
2023/02/04 11:29:24;;;;;;;;;;;;;;;25.98;39.29;95695.00;5011384;28;8941;-67
2023/02/04 11:31:49;;;;;;;;;;;;;;;25.98;39.11;95689.50;4999212;28;7161;-63
2023/02/04 11:34:18;;;;;;;;;;;;;;;25.98;38.93;95695.00;4994547;28;7249;-66
2023/02/04 11:37:11;;;;;;;;;;;;;;;26.00;39.43;95698.03;5002132;28;7226;-66
2023/02/04 11:39:41;;;;;;;;;;;;;;;26.01;38.98;95705.03;4999865;28;10049;-66
2023/02/04 11:42:21;;;;;;;;;;;;;;;25.99;39.01;95698.53;5006899;28;7136;-66
2023/02/04 11:44:52;;;;;;;;;;;;;;;26.01;39.30;95699.53;5001463;28;8624;-66
2023/02/04 11:47:19;;;;;;;;;;;;;;;26.00;38.88;95702.78;4990588;28;7275;-66
2023/02/04 11:50:00;;;;;;;;;;;;;;;25.97;38.55;95696.22;5004159;28;7339;-66
2023/02/04 11:52:26;;;;;;;;;;;;;;;25.98;39.28;95706.03;4991551;28;7280;-66
2023/02/04 11:54:56;;;;;;;;;;;;;;;25.97;39.37;95707.25;4992611;28;9047;-66
2023/02/04 11:57:41;;;;;;;;;;;;;;;25.93;38.67;95706.72;4991549;28;9461;-57
2023/02/04 12:00:24;;;;;;;;;;;;;;;25.88;38.95;95710.13;4992519;28;7049;-58
2023/02/04 12:03:01;;;;;;;;;;;;;;;25.91;38.70;95697.41;4999903;28;9050;-57
2023/02/04 12:05:42;;;;;;;;;;;;;;;25.91;39.54;95703.69;4996236;28;7030;-57
2023/02/04 12:08:21;;;;;;;;;;;;;;;25.90;38.97;95702.16;4999146;28;7219;-58
2023/02/04 12:11:10;;;;;;;;;;;;;;;25.89;39.72;95695.13;4998223;28;6998;-57
2023/02/04 12:13:51;;;;;;;;;;;;;;;25.89;38.65;95683.34;5011072;28;7158;-57
2023/02/04 12:16:19;;;;;;;;;;;;;;;25.91;39.71;95692.66;5002868;28;6984;-57
2023/02/04 12:18:45;;;;;;;;;;;;;;;25.93;38.59;95701.19;5000862;28;7037;-57
2023/02/04 12:21:13;;;;;;;;;;;;;;;25.92;38.88;95698.94;5007818;28;9159;-57
2023/02/04 12:23:41;;;;;;;;;;;;;;;25.93;38.89;95706.72;4998733;28;7014;-57
2023/02/04 12:26:08;;;;;;;;;;;;;;;25.93;39.25;95698.44;4997436;28;9285;-57
2023/02/04 12:28:34;;;;;;;;;;;;;;;25.93;38.68;95700.44;4999181;28;9775;-57
2023/02/04 12:31:00;;;;;;;;;;;;;;;25.92;38.87;95715.47;5002101;28;9112;-57
2023/02/04 12:33:26;;;;;;;;;;;;;;;25.93;38.58;95711.44;5007663;28;9172;-57
2023/02/04 12:35:52;;;;;;;;;;;;;;;25.94;39.00;95715.75;4994677;28;8807;-57
2023/02/04 12:38:22;;;;;;;;;;;;;;;25.93;39.08;95708.69;5005327;28;7029;-57
2023/02/04 12:40:47;;;;;;;;;;;;;;;25.93;38.76;95714.97;5005525;28;7138;-57
2023/02/04 12:43:13;;;;;;;;;;;;;;;25.87;39.18;95718.91;5009205;28;9621;-58
2023/02/04 12:45:44;;;;;;;;;;;;;;;25.92;38.71;95716.22;5008333;28;9170;-57
2023/02/04 12:48:13;;;;;;;;;;;;;;;25.90;39.52;95715.94;5014221;28;8714;-57
2023/02/04 12:50:42;;;;;;;;;;;;;;;25.89;39.00;95717.19;5007141;28;7277;-57
2023/02/04 12:53:08;;;;;;;;;;;;;;;25.88;38.60;95715.66;5011066;28;9068;-57
2023/02/04 12:55:35;;;;;;;;;;;;;;;25.90;38.66;95707.66;5009078;28;7354;-57
2023/02/04 12:58:02;;;;;;;;;;;;;;;25.87;38.94;95714.16;5004556;28;9527;-57
2023/02/04 13:00:28;;;;;;;;;;;;;;;25.91;38.60;95713.94;5001649;28;7545;-57
2023/02/04 13:03:02;;;;;;;;;;;;;;;25.94;39.15;95707.47;5009084;28;8170;-58
2023/02/04 13:05:28;;;;;;;;;;;;;;;25.91;38.66;95706.44;5007744;28;7263;-58
2023/02/04 13:07:54;;;;;;;;;;;;;;;25.88;38.59;95714.91;5003466;28;8777;-58
2023/02/04 13:10:20;;;;;;;;;;;;;;;25.93;38.48;95720.50;4997611;28;9076;-57
2023/02/04 13:12:46;;;;;;;;;;;;;;;25.94;38.51;95724.78;5000164;28;9042;-57
2023/02/04 13:15:12;;;;;;;;;;;;;;;25.94;38.82;95716.50;4999786;28;9045;-57
2023/02/04 13:17:41;;;;;;;;;;;;;;;25.94;38.75;95713.00;5010435;28;7047;-57
2023/02/04 13:20:07;;;;;;;;;;;;;;;25.94;38.88;95710.22;4995963;28;7160;-57
2023/02/04 13:22:36;;;;;;;;;;;;;;;25.90;39.42;95712.44;4993380;28;9153;-57
2023/02/04 13:25:04;;;;;;;;;;;;;;;25.90;39.33;95715.19;5008460;28;7286;-57
2023/02/04 13:27:33;;;;;;;;;;;;;;;25.82;39.21;95711.31;5008424;28;7011;-58